Map

Track Data

SID SEASON NUMBER BASIN SUBBASIN NAME ISO_TIME NATURE LAT LON WMO_WIND WMO_PRES WMO_AGENCY TRACK_TYPE DIST2LAND LANDFALL IFLAG USA_AGENCY USA_ATCF_ID USA_LAT USA_LON USA_RECORD USA_STATUS USA_WIND USA_PRES USA_SSHS USA_R34_NE USA_R34_SE USA_R34_SW USA_R34_NW USA_R50_NE USA_R50_SE USA_R50_SW USA_R50_NW USA_R64_NE USA_R64_SE USA_R64_SW USA_R64_NW USA_POCI USA_ROCI USA_RMW USA_EYE TOKYO_LAT TOKYO_LON TOKYO_GRADE TOKYO_WIND TOKYO_PRES TOKYO_R50_DIR TOKYO_R50_LONG TOKYO_R50_SHORT TOKYO_R30_DIR TOKYO_R30_LONG TOKYO_R30_SHORT TOKYO_LAND CMA_LAT CMA_LON CMA_CAT CMA_WIND CMA_PRES HKO_LAT HKO_LON HKO_CAT HKO_WIND HKO_PRES NEWDELHI_LAT NEWDELHI_LON NEWDELHI_GRADE NEWDELHI_WIND NEWDELHI_PRES NEWDELHI_CI NEWDELHI_DP NEWDELHI_POCI REUNION_LAT REUNION_LON REUNION_TYPE REUNION_WIND REUNION_PRES REUNION_TNUM REUNION_CI REUNION_RMW REUNION_R34_NE REUNION_R34_SE REUNION_R34_SW REUNION_R34_NW REUNION_R50_NE REUNION_R50_SE REUNION_R50_SW REUNION_R50_NW REUNION_R64_NE REUNION_R64_SE REUNION_R64_SW REUNION_R64_NW BOM_LAT BOM_LON BOM_TYPE BOM_WIND BOM_PRES BOM_TNUM BOM_CI BOM_RMW BOM_R34_NE BOM_R34_SE BOM_R34_SW BOM_R34_NW BOM_R50_NE BOM_R50_SE BOM_R50_SW BOM_R50_NW BOM_R64_NE BOM_R64_SE BOM_R64_SW BOM_R64_NW BOM_ROCI BOM_POCI BOM_EYE BOM_POS_METHOD BOM_PRES_METHOD NADI_LAT NADI_LON NADI_CAT NADI_WIND NADI_PRES WELLINGTON_LAT WELLINGTON_LON WELLINGTON_WIND WELLINGTON_PRES DS824_LAT DS824_LON DS824_STAGE DS824_WIND DS824_PRES TD9636_LAT TD9636_LON TD9636_STAGE TD9636_WIND TD9636_PRES TD9635_LAT TD9635_LON TD9635_WIND TD9635_PRES TD9635_ROCI NEUMANN_LAT NEUMANN_LON NEUMANN_CLASS NEUMANN_WIND NEUMANN_PRES MLC_LAT MLC_LON MLC_CLASS MLC_WIND MLC_PRES USA_GUST BOM_GUST BOM_GUST_PER REUNION_GUST REUNION_GUST_PER USA_SEAHGT USA_SEARAD_NE USA_SEARAD_SE USA_SEARAD_SW USA_SEARAD_NW STORM_SPEED STORM_DIR
1966061S21090 1966 17 SI WA NOT_NAMED 1966-03-01 16:00:00 TS -21.0228 90.1705 spur-other 2265 2265 ______________ -1 14 248
1966061S21090 1966 17 SI MM NOT_NAMED 1966-03-01 18:00:00 TS -21.2000 89.7000 spur-other 2319 2319 O________OO___ jtwc_sh SH281966 -21.2000 89.7000 -1 -21.2000 89.7000 TC 35 -21.2000 89.7000 2 14 248
1966061S21090 1966 17 SI MM NOT_NAMED 1966-03-01 19:00:00 TS -21.2821 89.4763 spur-other 2342 2342 P________PP___ SH281966 -21.2746 89.4659 -1 -21.2746 89.4659 TC 35 -21.2612 89.4598 2 14 250
1966061S21090 1966 17 SI MM NOT_NAMED 1966-03-01 21:00:00 TS -21.4271 89.0155 spur-other 2388 2388 P________PP___ SH281966 -21.4180 88.9980 -1 -21.4180 88.9980 TC 35 -21.3810 88.9815 2 14 252
1966061S21090 1966 17 SI MM NOT_NAMED 1966-03-01 22:00:00 TS -21.4900 88.7818 spur-other 2411 2411 P________PP___ SH281966 -21.4843 88.7646 -1 -21.4843 88.7646 TC 35 -21.4388 88.7447 2 13 255
1966061S21090 1966 17 SI MM NOT_NAMED 1966-03-02 00:00:00 TS -21.5971 88.3166 spur-other 2458 2458 O________OP___ jtwc_sh SH281966 -21.6000 88.3000 -1 -21.6000 88.3000 TC 35 -21.5483 88.2794 2 13 257
1966061S21090 1966 17 SI MM NOT_NAMED 1966-03-02 01:00:00 TS -21.6440 88.0849 spur-other 2474 2474 P________PP___ SH281966 -21.6473 88.0696 -1 -21.6473 88.0696 TC 35 -21.5992 88.0523 2 13 259
1966061S21090 1966 17 SI MM NOT_NAMED 1966-03-02 03:00:00 TS -21.7200 87.6309 spur-other 2521 2521 P________PP___ SH281966 -21.7224 87.6198 -1 -21.7224 87.6198 TC 35 -21.6913 87.6126 2 13 260
1966061S21090 1966 17 SI MM NOT_NAMED 1966-03-02 04:00:00 TS -21.7505 87.4122 spur-other 2544 2544 P________PP___ SH281966 -21.7520 87.4041 -1 -21.7520 87.4041 TC 35 -21.7319 87.4015 2 12 262
1966061S21090 1966 17 SI MM NOT_NAMED 1966-03-02 06:00:00 TS -21.8000 87.0000 spur-other 2576 2576 O________OO___ jtwc_sh SH281966 -21.8000 87.0000 -1 -21.8000 87.0000 TC 35 -21.8000 87.0000 2 11 262
1966061S21090 1966 17 SI MM NOT_NAMED 1966-03-02 07:00:00 TS -21.8255 86.8144 spur-other 2593 2593 P________PP___ SH281966 -21.8248 86.8162 -1 -21.8248 86.8162 TC 35 -21.8270 86.8108 2 10 262
1966061S21090 1966 17 SI MM NOT_NAMED 1966-03-02 09:00:00 TS -21.8656 86.4693 spur-other 2624 2632 P________PP___ SH281966 -21.8646 86.4774 -1 -21.8646 86.4774 TC 35 -21.8676 86.4531 2 10 263
1966061S21090 1966 17 SI MM NOT_NAMED 1966-03-02 10:00:00 TS -21.8805 86.3056 spur-other 2640 2640 P________PP___ SH281966 -21.8797 86.3170 -1 -21.8797 86.3170 TC 35 -21.8820 86.2828 2 9 266
1966061S21090 1966 17 SI MM NOT_NAMED 1966-03-02 12:00:00 TS -21.9002 85.9848 spur-other 2658 2658 O________OP___ jtwc_sh SH281966 -21.9000 86.0000 -1 -21.9000 86.0000 TC 35 -21.9007 85.9543 2 9 268
1966061S21090 1966 17 SI MM NOT_NAMED 1966-03-02 15:00:00 TS -21.9127 85.4928 spur-other 2686 2686 P________PP___ SH281966 -21.9149 85.5000 -1 -21.9149 85.5000 TC 35 -21.9084 85.4784 2 9 269
1966061S21090 1966 17 SI MM NOT_NAMED 1966-03-02 16:00:00 TS -21.9111 85.3290 spur-other 2698 2698 P________PP___ SH281966 -21.9132 85.3333 -1 -21.9132 85.3333 TC 35 -21.9070 85.3204 2 9 272
1966061S21090 1966 17 SI MM NOT_NAMED 1966-03-02 18:00:00 TS -21.9000 85.0000 spur-other 2716 2716 O________OO___ jtwc_sh SH281966 -21.9000 85.0000 -1 -21.9000 85.0000 TC 35 -21.9000 85.0000 2 9 273
1966061S21090 1966 17 SI MM NOT_NAMED 1966-03-02 19:00:00 TS -21.8895 84.8325 spur-other 2728 2728 P________PP___ SH281966 -21.8863 84.8359 -1 -21.8863 84.8359 TC 35 -21.8958 84.8258 2 9 275
1966061S21090 1966 17 SI MM NOT_NAMED 1966-03-02 21:00:00 TS -21.8602 84.4961 spur-other 2746 2744 P________PP___ SH281966 -21.8498 84.5074 -1 -21.8498 84.5074 TC 35 -21.8810 84.4737 2 9 276
1966061S21090 1966 17 SI MM NOT_NAMED 1966-03-02 22:00:00 TS -21.8442 84.3263 spur-other 2750 2720 P________PP___ SH281966 -21.8307 84.3411 -1 -21.8307 84.3411 TC 35 -21.8714 84.2966 2 10 275
1966061S21090 1966 17 SI MM NOT_NAMED 1966-03-03 00:00:00 TS -21.8166 83.9806 spur-other 2720 2699 O________OP___ jtwc_sh SH281966 -21.8000 84.0000 -1 -21.8000 84.0000 TC 35 -21.8498 83.9419 2 10 274
1966061S21090 1966 17 SI MM NOT_NAMED 1966-03-03 01:00:00 TS -21.8073 83.8016 spur-other 2699 2658 P________PP___ SH281966 -21.7916 83.8198 -1 -21.7916 83.8198 TC 35 -21.8387 83.7651 2 10 272
1966061S21090 1966 17 SI MM NOT_NAMED 1966-03-03 03:00:00 TS -21.7962 83.4381 spur-other 2658 2648 P________PP___ SH281966 -21.7850 83.4500 -1 -21.7850 83.4500 TC 35 -21.8186 83.4143 2 10 271
1966061S21090 1966 17 SI MM NOT_NAMED 1966-03-03 04:00:00 TS -21.7945 83.2564 spur-other 2648 2606 P________PP___ SH281966 -21.7866 83.2642 -1 -21.7866 83.2642 TC 35 -21.8103 83.2409 2 10 270
1966061S21090 1966 17 SI MM NOT_NAMED 1966-03-03 06:00:00 TS -21.8000 82.9000 spur-other 2606 2596 O________OO___ jtwc_sh SH281966 -21.8000 82.9000 -1 -21.8000 82.9000 TC 35 -21.8000 82.9000 2 10 268
1966061S21090 1966 17 SI MM NOT_NAMED 1966-03-03 07:00:00 TS -21.8103 82.7251 spur-other 2586 2555 P________PP___ SH281966 -21.8135 82.7251 -1 -21.8135 82.7251 TC 35 -21.7987 82.7330 2 10 265
1966061S21090 1966 17 SI MM NOT_NAMED 1966-03-03 09:00:00 TS -21.8395 82.3829 spur-other 2555 2503 P________PP___ SH281966 -21.8498 82.3851 -1 -21.8498 82.3851 TC 35 -21.8035 82.4057 2 9 265
1966061S21090 1966 17 SI MM NOT_NAMED 1966-03-03 12:00:00 TS -21.8834 81.8919 spur-other 2503 2451 O________OP___ jtwc_sh SH281966 -21.9000 81.9000 -1 -21.9000 81.9000 TC 35 -21.8258 81.9281 2 9 266
1966061S21090 1966 17 SI MM NOT_NAMED 1966-03-03 15:00:00 TS -21.8988 81.4115 spur-other 2451 2441 P________PP___ SH281966 -21.9075 81.4124 -1 -21.9075 81.4124 TC 35 -21.8602 81.4614 2 9 268
1966061S21090 1966 17 SI MM NOT_NAMED 1966-03-03 16:00:00 TS -21.9002 81.2639 spur-other 2441 2410 P________PP___ SH281966 -21.9055 81.2629 -1 -21.9055 81.2629 TC 35 -21.8732 81.3073 2 8 270
1966061S21090 1966 17 SI MM NOT_NAMED 1966-03-03 18:00:00 TS -21.9000 81.0000 spur-other 2410 2379 O________OO___ jtwc_sh SH281966 -21.9000 81.0000 -1 -21.9000 81.0000 TC 35 -21.9000 81.0000 2 6 270
1966061S21090 1966 17 SI MM NOT_NAMED 1966-03-03 21:00:00 TS -21.9007 80.7311 spur-other 2379 2379 P________P____ SH281966 -21.8975 80.7125 -1 -21.8975 80.7125 TC 30 2 5 270
1966061S21090 1966 17 SI MM NOT_NAMED 1966-03-03 22:00:00 TS -21.8994 80.6566 spur-other 2379 2359 P________P____ SH281966 -21.8980 80.6371 -1 -21.8980 80.6371 TC 28 2 4 273
1966061S21090 1966 17 SI MM NOT_NAMED 1966-03-04 00:00:00 TS -21.8909 80.5049 spur-other 2359 2338 O________O____ jtwc_sh SH281966 -21.9000 80.5000 -1 -21.9000 80.5000 TC 25 2 4 278
1966061S21090 1966 17 SI MM NOT_NAMED 1966-03-04 03:00:00 TS -21.8495 80.2674 spur-other 2338 ______________ SH281966 -1 TC 2 4 281

About IBTrACS Database

This database is a web-friendly format of International Best Track Archive for Climate Stewardship (IBTrACS), a global best track data archive curated by NOAA dating back to 1842.

Updated: 2021-12-03